Time;durP1;ratioP1;P1;durP2;ratioP2;P2;SDS_P1;SDS_P2;PMS_P1;PMS_P2;Temp;Humidity;BMP_temperature;BMP_pressure;BME280_temperature;BME280_humidity;BME280_pressure;Samples;Min_cycle;Max_cycle;Signal;HPM_P1;HPM_P2
2022/06/20 00:00:21;;;;;;;19.92;4.72;;;12.50;99.90;;;;;;5038897;28;20037;-70
2022/06/20 00:02:50;;;;;;;12.23;4.07;;;12.50;99.90;;;;;;5035195;28;20117;-70
2022/06/20 00:05:23;;;;;;;13.07;3.78;;;12.50;99.90;;;;;;5044500;28;20460;-69
2022/06/20 00:07:50;;;;;;;13.32;4.05;;;12.40;99.90;;;;;;5045962;28;20040;-67
2022/06/20 00:10:19;;;;;;;13.02;4.80;;;12.50;99.90;;;;;;5044039;28;20045;-67
2022/06/20 00:12:46;;;;;;;14.88;4.13;;;12.50;99.90;;;;;;5040505;28;20547;-68
2022/06/20 00:15:46;;;;;;;15.43;3.92;;;12.50;99.90;;;;;;5073130;28;20040;-68
2022/06/20 00:18:12;;;;;;;13.20;3.70;;;12.40;99.90;;;;;;5036770;28;20090;-68
2022/06/20 00:20:37;;;;;;;14.52;4.15;;;12.50;99.90;;;;;;5054461;28;20577;-69
2022/06/20 00:23:03;;;;;;;11.38;4.10;;;12.50;99.90;;;;;;5041254;28;20025;-69
2022/06/20 00:25:30;;;;;;;14.88;4.43;;;12.40;99.90;;;;;;5041721;28;20044;-69
2022/06/20 00:27:56;;;;;;;14.90;4.55;;;12.40;99.90;;;;;;5040251;28;20045;-69
2022/06/20 00:30:22;;;;;;;14.65;4.55;;;12.40;99.90;;;;;;5042201;28;20055;-69
2022/06/20 00:32:49;;;;;;;18.70;4.55;;;12.40;99.90;;;;;;5040804;28;20135;-69
2022/06/20 00:35:16;;;;;;;12.50;4.07;;;12.30;99.90;;;;;;5042054;28;20440;-69
2022/06/20 00:37:42;;;;;;;16.65;3.97;;;12.30;99.90;;;;;;5043332;28;20056;-69
2022/06/20 00:40:23;;;;;;;13.32;4.25;;;12.30;99.90;;;;;;5043839;28;20024;-70
2022/06/20 00:42:51;;;;;;;15.18;4.50;;;12.30;99.90;;;;;;5043804;28;20039;-70
2022/06/20 00:45:18;;;;;;;12.18;4.22;;;12.30;99.90;;;;;;5032103;28;20392;-71
2022/06/20 00:47:45;;;;;;;15.63;4.40;;;12.20;99.90;;;;;;5037769;28;20040;-70
2022/06/20 00:50:26;;;;;;;14.13;4.60;;;12.20;99.90;;;;;;5043276;28;20107;-69
2022/06/20 00:53:03;;;;;;;15.43;3.95;;;12.20;99.90;;;;;;5040973;28;20140;-69
2022/06/20 00:55:39;;;;;;;16.30;4.45;;;12.20;99.90;;;;;;5041146;28;20446;-68
2022/06/20 00:58:23;;;;;;;16.25;4.90;;;12.20;99.90;;;;;;5040841;28;20153;-68
2022/06/20 01:00:49;;;;;;;17.17;5.05;;;12.30;99.90;;;;;;5016845;28;20044;-68
2022/06/20 01:03:21;;;;;;;17.52;4.80;;;12.30;99.90;;;;;;5037680;28;20083;-67
2022/06/20 01:05:53;;;;;;;15.30;5.00;;;12.30;99.90;;;;;;5044370;28;20044;-66
2022/06/20 01:08:24;;;;;;;16.83;5.30;;;12.30;99.90;;;;;;5020889;28;20123;-66
2022/06/20 01:10:54;;;;;;;17.27;5.22;;;12.30;99.90;;;;;;5049538;28;20449;-67
2022/06/20 01:13:22;;;;;;;13.15;5.13;;;12.30;99.90;;;;;;5021279;28;20040;-69
2022/06/20 01:15:50;;;;;;;11.90;4.38;;;12.30;99.90;;;;;;5025014;28;20447;-67
2022/06/20 01:18:24;;;;;;;17.27;4.93;;;12.30;99.90;;;;;;5037305;28;20043;-67
2022/06/20 01:20:51;;;;;;;17.75;5.22;;;12.20;99.90;;;;;;5033656;28;20703;-66
2022/06/20 01:23:48;;;;;;;18.42;5.35;;;12.20;99.90;;;;;;5025507;28;20037;-67
2022/06/20 01:26:32;;;;;;;16.75;5.07;;;12.20;99.90;;;;;;5028502;28;20410;-67
2022/06/20 01:29:02;;;;;;;17.67;5.30;;;12.20;99.90;;;;;;5038226;28;20036;-66
2022/06/20 01:31:33;;;;;;;19.95;5.60;;;12.20;99.90;;;;;;5039286;28;20480;-67
2022/06/20 01:34:01;;;;;;;15.73;4.90;;;12.30;99.90;;;;;;5073150;28;20041;-67
2022/06/20 01:39:16;;;;;;;13.73;4.97;;;12.30;99.90;;;;;;5043803;28;20064;-68
2022/06/20 01:44:31;;;;;;;20.63;5.78;;;12.20;99.90;;;;;;5042640;28;20056;-67
2022/06/20 01:46:57;;;;;;;14.82;5.18;;;12.20;99.90;;;;;;5075926;28;20044;-67
2022/06/20 01:49:24;;;;;;;15.27;4.97;;;12.20;99.90;;;;;;5046014;28;20044;-67
2022/06/20 01:52:07;;;;;;;17.00;5.35;;;12.30;99.90;;;;;;5043862;28;20049;-68
2022/06/20 01:54:41;;;;;;;20.80;5.85;;;12.30;99.90;;;;;;5074138;28;20454;-69
2022/06/20 01:57:10;;;;;;;15.75;5.43;;;12.20;99.90;;;;;;5060175;28;20068;-69
2022/06/20 01:59:50;;;;;;;18.25;6.05;;;12.30;99.90;;;;;;5044799;28;20049;-70
2022/06/20 02:02:17;;;;;;;17.05;5.30;;;12.30;99.90;;;;;;5030838;28;20040;-68
2022/06/20 02:04:44;;;;;;;18.27;6.13;;;12.20;99.90;;;;;;5043972;28;20036;-68
2022/06/20 02:07:11;;;;;;;18.67;5.32;;;12.10;99.90;;;;;;5042048;28;20087;-67
2022/06/20 02:09:39;;;;;;;18.67;5.47;;;12.10;99.90;;;;;;5041865;28;20045;-66
2022/06/20 02:12:06;;;;;;;15.93;5.43;;;12.00;99.90;;;;;;5025946;28;20373;-67
2022/06/20 02:14:41;;;;;;;18.17;5.95;;;11.90;99.90;;;;;;5037247;28;20037;-66
2022/06/20 02:17:35;;;;;;;16.15;5.60;;;12.00;99.90;;;;;;5042887;28;20068;-66
2022/06/20 02:20:06;;;;;;;20.85;5.72;;;11.90;99.90;;;;;;5037878;28;20076;-68
2022/06/20 02:22:33;;;;;;;22.50;5.90;;;11.90;99.90;;;;;;5066492;28;20135;-67
2022/06/20 02:25:10;;;;;;;20.70;5.75;;;11.80;99.90;;;;;;5042988;28;20040;-68
2022/06/20 02:27:59;;;;;;;19.80;6.03;;;11.80;99.90;;;;;;5045880;28;20064;-68
2022/06/20 02:30:25;;;;;;;19.52;5.82;;;11.80;99.90;;;;;;5045271;28;20044;-68
2022/06/20 02:33:04;;;;;;;19.90;5.95;;;11.70;99.90;;;;;;5040930;28;20033;-68
2022/06/20 02:35:31;;;;;;;15.25;5.40;;;11.70;99.90;;;;;;5039500;28;20119;-68
2022/06/20 02:37:57;;;;;;;17.25;5.57;;;11.60;99.90;;;;;;5041318;28;20040;-67
2022/06/20 02:40:25;;;;;;;19.02;5.53;;;11.60;99.90;;;;;;5041542;28;20055;-68
2022/06/20 02:42:53;;;;;;;19.50;5.82;;;11.60;99.90;;;;;;5034610;28;20049;-68
2022/06/20 02:45:21;;;;;;;14.75;5.50;;;11.60;99.90;;;;;;5048259;28;20042;-68
2022/06/20 02:47:50;;;;;;;15.70;5.93;;;11.50;99.90;;;;;;5044735;28;20046;-67
2022/06/20 02:50:21;;;;;;;15.35;4.82;;;11.50;99.90;;;;;;5044997;28;20058;-67
2022/06/20 02:53:04;;;;;;;16.33;5.28;;;11.50;99.90;;;;;;5034623;28;20037;-67
2022/06/20 02:55:33;;;;;;;14.93;5.28;;;11.50;99.90;;;;;;5042659;28;20049;-67
2022/06/20 02:58:04;;;;;;;10.82;4.95;;;11.50;99.90;;;;;;5072359;28;20040;-68
2022/06/20 03:00:57;;;;;;;13.52;4.93;;;11.40;99.90;;;;;;5042113;28;20127;-68
2022/06/20 03:03:43;;;;;;;;;;;11.40;99.90;;;;;;5042470;28;20468;-69
2022/06/20 03:06:12;;;;;;;18.42;5.30;;;11.40;99.90;;;;;;5039811;28;19943;-68
2022/06/20 03:08:38;;;;;;;13.60;5.28;;;11.30;99.90;;;;;;5045012;28;20123;-68
2022/06/20 03:11:05;;;;;;;13.68;5.00;;;11.30;99.90;;;;;;5047036;28;20044;-68
2022/06/20 03:13:32;;;;;;;14.30;5.00;;;11.30;99.90;;;;;;5047785;28;20044;-69
2022/06/20 03:16:01;;;;;;;15.38;5.03;;;11.30;99.90;;;;;;5042224;28;20542;-69
2022/06/20 03:18:28;;;;;;;15.57;5.10;;;11.30;99.90;;;;;;5043391;28;20037;-69
2022/06/20 03:20:54;;;;;;;16.90;6.93;;;11.30;99.90;;;;;;5045172;28;20063;-69
2022/06/20 03:23:26;;;;;;;17.02;4.75;;;11.20;99.90;;;;;;5044050;28;20514;-69
2022/06/20 03:25:54;;;;;;;15.02;5.57;;;11.20;99.90;;;;;;5043850;28;20052;-69
2022/06/20 03:28:22;;;;;;;15.80;4.90;;;11.20;99.90;;;;;;5037326;28;20049;-69
2022/06/20 03:30:48;;;;;;;14.43;5.18;;;11.20;99.90;;;;;;5039492;28;20458;-70
2022/06/20 03:33:16;;;;;;;10.00;4.60;;;11.10;99.90;;;;;;5043175;28;20041;-70
2022/06/20 03:36:09;;;;;;;13.57;5.10;;;11.20;99.90;;;;;;5043983;28;20388;-70
2022/06/20 03:38:36;;;;;;;12.90;5.25;;;11.10;99.90;;;;;;5029814;28;20056;-71
2022/06/20 03:41:04;;;;;;;11.23;4.63;;;11.00;99.90;;;;;;5040920;28;20068;-69
2022/06/20 03:43:32;;;;;;;9.93;4.40;;;11.10;99.90;;;;;;5038310;28;20170;-69
2022/06/20 03:46:06;;;;;;;14.13;5.15;;;11.10;99.90;;;;;;5040529;28;20047;-69
2022/06/20 03:48:44;;;;;;;12.05;4.65;;;11.00;99.90;;;;;;5040127;28;20151;-69
2022/06/20 03:51:16;;;;;;;10.65;5.10;;;11.00;99.90;;;;;;5037198;28;20881;-69
2022/06/20 03:54:08;;;;;;;8.95;4.70;;;10.90;99.90;;;;;;5038807;28;20048;-69
2022/06/20 03:56:48;;;;;;;9.98;4.72;;;10.90;99.90;;;;;;5044121;28;20037;-69
2022/06/20 03:59:30;;;;;;;14.10;5.13;;;10.80;99.90;;;;;;5037590;28;20036;-68
2022/06/20 04:02:35;;;;;;;17.05;6.05;;;10.70;99.90;;;;;;5038437;28;20090;-68
2022/06/20 04:05:03;;;;;;;14.88;5.90;;;10.70;99.90;;;;;;5027659;28;20110;-68
2022/06/20 04:07:38;;;;;;;13.57;5.57;;;10.70;99.90;;;;;;5042299;28;20047;-68
2022/06/20 04:13:34;;;;;;;14.35;5.82;;;10.90;99.90;;;;;;5045349;28;20923;-68
2022/06/20 04:16:13;;;;;;;13.05;5.55;;;10.90;99.90;;;;;;5078357;28;20040;-68
2022/06/20 04:18:46;;;;;;;7.03;3.95;;;11.00;99.90;;;;;;5041198;28;20124;-68
2022/06/20 04:21:27;;;;;;;11.82;4.75;;;11.00;99.90;;;;;;5034134;28;20053;-68
2022/06/20 04:24:23;;;;;;;17.92;5.90;;;11.10;99.90;;;;;;5026521;28;20052;-68
2022/06/20 04:26:55;;;;;;;16.20;5.35;;;11.20;99.90;;;;;;5055244;28;20049;-67
2022/06/20 04:29:32;;;;;;;16.50;5.53;;;11.30;99.90;;;;;;5059418;28;20094;-66
2022/06/20 04:32:39;;;;;;;15.93;5.22;;;11.50;99.90;;;;;;5042823;28;20040;-66
2022/06/20 04:35:07;;;;;;;13.88;5.50;;;11.60;99.90;;;;;;5030587;28;20036;-66
2022/06/20 04:37:48;;;;;;;17.83;5.20;;;11.70;99.90;;;;;;5033523;28;20513;-67
2022/06/20 04:40:26;;;;;;;10.68;5.32;;;11.80;99.90;;;;;;5040470;28;20048;-66
2022/06/20 04:43:12;;;;;;;17.25;5.50;;;12.00;99.90;;;;;;5036514;28;20495;-66
2022/06/20 04:45:47;;;;;;;13.70;5.32;;;12.20;99.90;;;;;;5035579;28;20045;-68
2022/06/20 04:48:16;;;;;;;13.20;4.80;;;12.30;99.90;;;;;;5038878;28;20037;-68
2022/06/20 04:50:47;;;;;;;14.20;4.70;;;12.40;99.90;;;;;;5032533;28;20491;-69
2022/06/20 04:53:16;;;;;;;16.15;5.30;;;12.30;99.90;;;;;;5058363;28;20119;-69
2022/06/20 04:55:48;;;;;;;11.73;5.22;;;12.30;99.90;;;;;;5043325;28;20051;-70
2022/06/20 04:58:26;;;;;;;13.43;5.07;;;12.30;99.90;;;;;;5035232;28;20521;-70
2022/06/20 05:00:52;;;;;;;12.52;6.05;;;12.30;99.90;;;;;;5040684;28;20044;-70
2022/06/20 05:03:25;;;;;;;14.25;5.32;;;12.40;99.90;;;;;;5041124;28;20032;-71
2022/06/20 05:05:55;;;;;;;15.20;6.03;;;12.50;99.90;;;;;;5035488;28;20056;-73
2022/06/20 05:08:37;;;;;;;11.50;4.90;;;12.50;99.90;;;;;;5039467;28;20491;-72
2022/06/20 05:11:09;;;;;;;13.75;5.43;;;12.70;99.90;;;;;;5039716;28;20040;-73
2022/06/20 05:13:43;;;;;;;17.67;5.43;;;12.70;99.90;;;;;;5017023;28;20063;-72
2022/06/20 05:16:19;;;;;;;10.88;5.15;;;12.90;99.90;;;;;;5037129;28;20708;-71
2022/06/20 05:18:50;;;;;;;10.18;4.70;;;12.90;99.90;;;;;;5072252;28;20040;-71
2022/06/20 05:21:17;;;;;;;14.48;5.22;;;13.00;99.90;;;;;;5045725;28;20578;-70
2022/06/20 05:23:47;;;;;;;15.68;5.82;;;13.10;99.90;;;;;;5035504;28;20049;-69
2022/06/20 05:26:24;;;;;;;14.60;5.20;;;13.20;99.90;;;;;;5041808;28;20037;-71
2022/06/20 05:28:52;;;;;;;14.88;5.50;;;13.40;99.90;;;;;;5043107;28;20068;-73
2022/06/20 05:31:37;;;;;;;18.60;5.90;;;13.50;99.90;;;;;;5040942;28;20483;-74
2022/06/20 05:34:09;;;;;;;17.45;5.57;;;13.60;99.90;;;;;;5038479;28;20040;-71
2022/06/20 05:36:43;;;;;;;15.82;5.38;;;13.70;99.90;;;;;;5037204;28;20175;-67
2022/06/20 05:39:38;;;;;;;18.30;5.15;;;13.90;99.90;;;;;;5041651;28;20376;-66
2022/06/20 05:42:04;;;;;;;19.30;6.10;;;14.10;99.90;;;;;;5037518;28;20040;-69
2022/06/20 05:44:30;;;;;;;17.40;5.90;;;14.20;99.90;;;;;;5034304;28;20051;-70
2022/06/20 05:47:13;;;;;;;14.35;5.07;;;14.10;99.90;;;;;;5036815;28;20119;-68
2022/06/20 05:49:45;;;;;;;21.02;5.90;;;14.20;99.90;;;;;;5055833;28;20045;-69
2022/06/20 05:52:15;;;;;;;;;;;14.30;99.90;;;;;;5038070;28;20040;-67
2022/06/20 05:54:47;;;;;;;19.27;5.07;;;14.30;99.90;;;;;;5039102;28;19964;-68
2022/06/20 05:57:18;;;;;;;11.25;4.68;;;14.40;99.90;;;;;;5040907;28;20040;-69
2022/06/20 05:59:51;;;;;;;16.38;5.13;;;14.50;99.90;;;;;;5037790;28;20040;-70
2022/06/20 06:02:26;;;;;;;15.40;4.32;;;14.60;99.90;;;;;;5038245;28;20129;-74
2022/06/20 06:05:28;;;;;;;18.92;4.40;;;14.70;99.90;;;;;;5039130;28;20040;-72
2022/06/20 06:08:05;;;;;;;19.23;5.20;;;14.80;99.90;;;;;;5041695;28;20190;-73
2022/06/20 06:10:45;;;;;;;24.90;5.70;;;14.80;99.90;;;;;;5038044;28;20383;-69
2022/06/20 06:13:19;;;;;;;21.65;5.60;;;14.80;99.90;;;;;;5048600;28;20025;-70
2022/06/20 06:18:46;;;;;;;17.17;5.85;;;14.80;99.90;;;;;;5050319;28;20400;-69
2022/06/20 06:21:12;;;;;;;17.30;5.00;;;14.80;99.90;;;;;;5034670;28;20396;-69
2022/06/20 06:23:38;;;;;;;19.02;5.43;;;14.80;99.90;;;;;;5042790;28;20041;-71
2022/06/20 06:26:04;;;;;;;19.30;6.13;;;14.90;99.90;;;;;;5043553;28;20094;-72
2022/06/20 06:28:30;;;;;;;18.35;5.05;;;15.00;99.90;;;;;;5038808;28;20028;-68
2022/06/20 06:31:22;;;;;;;17.33;5.50;;;15.00;99.90;;;;;;5043728;28;20032;-67
2022/06/20 06:33:54;;;;;;;24.08;5.82;;;15.10;99.90;;;;;;5038850;28;20045;-71
2022/06/20 06:36:30;;;;;;;18.80;5.70;;;15.30;99.90;;;;;;5032681;28;20048;-72
2022/06/20 06:39:18;;;;;;;26.95;6.03;;;15.40;99.90;;;;;;5027497;28;20099;-72
2022/06/20 06:41:47;;;;;;;21.80;6.25;;;15.40;99.90;;;;;;5026043;28;20669;-73
2022/06/20 06:44:32;;;;;;;24.50;5.55;;;15.30;99.90;;;;;;5036268;28;20059;-73
2022/06/20 06:47:00;;;;;;;17.30;6.00;;;15.40;99.90;;;;;;5035353;28;20041;-72
2022/06/20 06:49:57;;;;;;;15.02;4.13;;;15.30;99.90;;;;;;5035250;28;20072;-73
2022/06/20 06:52:40;;;;;;;15.65;5.03;;;15.40;99.90;;;;;;5037153;28;20079;-74
2022/06/20 06:55:30;;;;;;;11.55;4.70;;;15.20;99.90;;;;;;5027977;28;20079;-72
2022/06/20 06:58:19;;;;;;;17.52;5.38;;;15.20;99.90;;;;;;5066845;28;20043;-68
2022/06/20 07:00:58;;;;;;;21.40;5.78;;;15.20;99.90;;;;;;5009942;28;20114;-69
2022/06/20 07:03:39;;;;;;;14.68;5.25;;;15.00;99.90;;;;;;5035382;28;20041;-71
2022/06/20 07:06:13;;;;;;;24.85;6.22;;;15.00;99.90;;;;;;5033913;28;20102;-70
2022/06/20 07:08:45;;;;;;;18.65;6.13;;;14.90;99.90;;;;;;5035088;28;20112;-69
2022/06/20 07:11:21;;;;;;;17.83;6.03;;;14.80;99.90;;;;;;5032975;28;20041;-69
2022/06/20 07:14:09;;;;;;;29.50;6.90;;;14.80;99.90;;;;;;5021302;28;20425;-71
2022/06/20 07:16:45;;;;;;;20.25;5.80;;;14.70;99.90;;;;;;5014735;28;20081;-68
2022/06/20 07:19:13;;;;;;;19.40;5.93;;;14.90;99.90;;;;;;5023616;28;20040;-72
2022/06/20 07:21:40;;;;;;;18.40;5.75;;;15.20;99.90;;;;;;5035681;28;20048;-68
2022/06/20 07:24:13;;;;;;;18.10;5.20;;;15.30;99.90;;;;;;5035062;28;20403;-67
2022/06/20 07:26:51;;;;;;;18.33;5.40;;;15.30;99.90;;;;;;5034670;28;20517;-66
2022/06/20 07:29:21;;;;;;;19.05;5.00;;;15.30;99.90;;;;;;5034256;28;20075;-70
2022/06/20 07:31:52;;;;;;;19.95;5.63;;;15.40;99.90;;;;;;5036685;28;20037;-68
2022/06/20 07:34:31;;;;;;;17.80;5.60;;;15.30;99.90;;;;;;5015872;28;20358;-68
2022/06/20 07:37:20;;;;;;;16.92;5.13;;;15.20;99.90;;;;;;5047907;28;20033;-75
2022/06/20 07:40:24;;;;;;;13.35;3.92;;;15.20;99.90;;;;;;5014954;28;20045;-70
2022/06/20 07:43:00;;;;;;;13.75;5.45;;;15.20;99.90;;;;;;4991882;28;20057;-71
2022/06/20 07:45:40;;;;;;;18.20;5.22;;;15.20;99.90;;;;;;5015929;28;20053;-67
2022/06/20 07:48:22;;;;;;;19.38;5.43;;;15.30;99.90;;;;;;5013970;28;20396;-74
2022/06/20 07:51:09;;;;;;;19.33;5.32;;;15.40;99.90;;;;;;5014686;28;20077;-67
2022/06/20 07:53:44;;;;;;;18.02;5.72;;;15.30;99.90;;;;;;5014541;28;20041;-67
2022/06/20 07:56:15;;;;;;;15.13;4.88;;;15.40;99.90;;;;;;5014430;28;20091;-73
2022/06/20 07:59:03;;;;;;;17.67;5.60;;;15.80;99.90;;;;;;4998349;28;20041;-67
2022/06/20 08:01:32;;;;;;;19.33;5.20;;;16.10;99.90;;;;;;5014126;28;20046;-72
2022/06/20 08:04:08;;;;;;;17.92;5.55;;;16.40;99.90;;;;;;5016275;28;20049;-72
2022/06/20 08:06:49;;;;;;;22.30;5.30;;;16.50;99.90;;;;;;5013938;28;20051;-74
2022/06/20 08:09:33;;;;;;;20.50;5.20;;;16.50;99.90;;;;;;5014623;28;20037;-71
2022/06/20 08:12:09;;;;;;;16.85;4.72;;;16.70;99.90;;;;;;5013923;28;20060;-72
2022/06/20 08:15:03;;;;;;;18.63;5.15;;;16.80;99.90;;;;;;5014495;28;20579;-68
2022/06/20 08:17:30;;;;;;;16.25;4.03;;;16.70;99.90;;;;;;5017821;28;20049;-68
2022/06/20 08:19:57;;;;;;;12.18;3.53;;;16.50;99.90;;;;;;5027227;28;20040;-71
2022/06/20 08:22:29;;;;;;;10.68;2.35;;;16.30;99.90;;;;;;5018593;28;20052;-77
2022/06/20 08:25:02;;;;;;;15.70;3.63;;;16.30;99.90;;;;;;5031740;28;20044;-72
2022/06/20 08:27:34;;;;;;;10.10;3.63;;;16.50;99.90;;;;;;5033045;28;20610;-71
2022/06/20 08:30:09;;;;;;;18.55;4.68;;;16.80;99.90;;;;;;5029682;28;20036;-70
2022/06/20 08:32:43;;;;;;;15.32;3.58;;;17.00;99.90;;;;;;5033829;28;20668;-72
2022/06/20 08:35:23;;;;;;;15.45;4.28;;;17.20;99.90;;;;;;5033691;28;20395;-67
2022/06/20 08:38:02;;;;;;;13.30;3.95;;;17.10;99.90;;;;;;5032980;28;20049;-69
2022/06/20 08:40:49;;;;;;;10.15;3.70;;;16.70;99.90;;;;;;5033923;28;20048;-69
2022/06/20 08:43:42;;;;;;;11.48;3.95;;;16.60;99.90;;;;;;5033930;28;20076;-72
2022/06/20 08:46:38;;;;;;;16.80;4.35;;;16.40;99.90;;;;;;5033490;28;20075;-68
2022/06/20 08:49:23;;;;;;;13.05;4.18;;;16.40;99.90;;;;;;5031372;28;20049;-72
2022/06/20 08:52:22;;;;;;;12.43;4.03;;;16.30;99.90;;;;;;5014065;28;20049;-73
2022/06/20 08:54:56;;;;;;;12.40;4.10;;;16.20;99.90;;;;;;5013259;28;20037;-70
2022/06/20 08:57:48;;;;;;;15.32;3.90;;;16.10;99.90;;;;;;5014918;28;20041;-67
2022/06/20 09:00:45;;;;;;;11.35;4.20;;;15.90;99.90;;;;;;5030332;28;20054;-69
2022/06/20 09:03:28;;;;;;;17.55;4.90;;;15.80;99.90;;;;;;5027018;28;20044;-76
2022/06/20 09:06:01;;;;;;;16.10;4.20;;;16.00;99.90;;;;;;5032647;28;20045;-70
2022/06/20 09:08:40;;;;;;;15.35;4.15;;;16.30;99.90;;;;;;5015881;28;20049;-72
2022/06/20 09:11:26;;;;;;;9.63;3.00;;;16.60;99.90;;;;;;5013338;28;20100;-71
2022/06/20 09:14:31;;;;;;;6.13;2.50;;;17.00;99.90;;;;;;5013420;28;20164;-72
2022/06/20 09:17:05;;;;;;;7.68;3.17;;;17.10;99.90;;;;;;5012620;28;20045;-73
2022/06/20 09:19:51;;;;;;;8.05;2.95;;;16.80;99.90;;;;;;5024601;28;20048;-71
2022/06/20 09:22:48;;;;;;;13.15;3.00;;;16.80;99.90;;;;;;5031506;28;20053;-74
2022/06/20 09:25:37;;;;;;;12.65;2.80;;;17.00;99.90;;;;;;5015953;28;20055;-71
2022/06/20 09:28:11;;;;;;;11.07;3.85;;;17.20;99.90;;;;;;5012602;28;20060;-72
2022/06/20 09:30:53;;;;;;;6.80;2.97;;;17.10;99.90;;;;;;5030436;28;20182;-69
2022/06/20 09:33:39;;;;;;;7.65;2.40;;;17.10;99.90;;;;;;5033175;28;20114;-68
2022/06/20 09:36:23;;;;;;;12.98;3.80;;;17.30;99.90;;;;;;5032846;28;20156;-71
2022/06/20 09:39:04;;;;;;;9.43;3.30;;;17.40;99.90;;;;;;5030947;28;20551;-67
2022/06/20 09:41:38;;;;;;;12.02;3.78;;;17.50;99.90;;;;;;5015313;28;20044;-73
2022/06/20 09:44:25;;;;;;;10.40;3.97;;;17.70;99.90;;;;;;5033076;28;20037;-72
2022/06/20 09:47:28;;;;;;;10.70;4.00;;;17.80;99.90;;;;;;5029298;28;20118;-68
2022/06/20 09:50:06;;;;;;;9.73;3.15;;;17.90;99.90;;;;;;5019007;28;20764;-71
2022/06/20 09:53:16;;;;;;;11.50;4.07;;;17.90;99.90;;;;;;5016320;28;20045;-73
2022/06/20 09:56:09;;;;;;;12.77;3.63;;;17.80;99.90;;;;;;4989066;28;20158;-70
2022/06/20 09:58:54;;;;;;;12.13;3.65;;;17.70;99.90;;;;;;5016976;28;20034;-73
2022/06/20 10:01:35;;;;;;;11.75;3.33;;;17.90;99.90;;;;;;5016621;28;20369;-69
2022/06/20 10:04:23;;;;;;;11.35;3.17;;;18.00;99.90;;;;;;5016287;28;20069;-69
2022/06/20 10:06:49;;;;;;;22.52;3.72;;;17.90;99.90;;;;;;5016415;28;20045;-70
2022/06/20 10:09:34;;;;;;;12.45;4.57;;;17.80;99.90;;;;;;5025207;28;20040;-71
2022/06/20 10:12:18;;;;;;;13.15;4.03;;;17.50;99.90;;;;;;5017165;28;20544;-71
2022/06/20 10:15:15;;;;;;;9.85;3.90;;;17.30;99.90;;;;;;5017053;28;20503;-68
2022/06/20 10:17:55;;;;;;;9.23;3.05;;;17.20;99.90;;;;;;5048698;28;20048;-67
2022/06/20 10:20:40;;;;;;;17.08;6.50;;;17.50;99.90;;;;;;5034049;28;20483;-67
2022/06/20 10:23:38;;;;;;;12.80;4.80;;;17.60;99.90;;;;;;5036735;28;20041;-70
2022/06/20 10:26:10;;;;;;;13.68;4.60;;;17.20;99.90;;;;;;5035971;28;20048;-69
2022/06/20 10:29:01;;;;;;;17.90;4.95;;;17.30;99.90;;;;;;5021065;28;20061;-69
2022/06/20 10:31:36;;;;;;;13.05;4.20;;;17.40;99.90;;;;;;5016745;28;20086;-69
2022/06/20 10:34:27;;;;;;;15.82;4.70;;;17.60;99.90;;;;;;5014805;28;20091;-70
2022/06/20 10:37:02;;;;;;;15.68;3.95;;;17.80;99.90;;;;;;5015873;28;20113;-71
2022/06/20 10:39:41;;;;;;;14.18;5.18;;;17.80;99.90;;;;;;5016146;28;20037;-71
2022/06/20 10:42:49;;;;;;;6.70;3.42;;;17.70;99.90;;;;;;5016548;28;20092;-70
2022/06/20 10:45:54;;;;;;;13.95;3.92;;;17.40;99.90;;;;;;4987777;28;20128;-70
2022/06/20 10:48:33;;;;;;;13.75;4.95;;;17.30;99.90;;;;;;5004509;28;20049;-67
2022/06/20 10:51:17;;;;;;;14.05;6.07;;;17.50;99.90;;;;;;5015303;28;20265;-66
2022/06/20 10:54:28;;;;;;;8.00;3.65;;;17.70;99.90;;;;;;5023766;28;20033;-71
2022/06/20 10:57:12;;;;;;;14.35;4.05;;;18.00;99.90;;;;;;5015089;28;20052;-68
2022/06/20 11:00:03;;;;;;;14.77;4.50;;;18.10;99.90;;;;;;5034448;28;20040;-71
2022/06/20 11:02:44;;;;;;;17.10;5.50;;;18.20;99.90;;;;;;5035729;28;20483;-71
2022/06/20 11:05:19;;;;;;;18.08;4.70;;;18.20;99.90;;;;;;5030070;28;20083;-70
2022/06/20 11:08:24;;;;;;;14.90;5.07;;;18.00;99.90;;;;;;5028280;28;20513;-67
2022/06/20 11:11:05;;;;;;;8.02;3.53;;;17.90;99.90;;;;;;5035549;28;20044;-68
2022/06/20 11:13:54;;;;;;;16.95;4.47;;;18.20;99.90;;;;;;5042878;28;20041;-72
2022/06/20 11:16:40;;;;;;;13.80;5.10;;;18.50;99.90;;;;;;5031411;28;20508;-71
2022/06/20 11:19:09;;;;;;;11.20;4.55;;;18.60;99.90;;;;;;5035381;28;20053;-74
2022/06/20 11:21:56;;;;;;;19.98;4.60;;;18.50;99.90;;;;;;5047777;28;20475;-71
2022/06/20 11:24:47;;;;;;;18.25;6.65;;;18.40;99.90;;;;;;5030733;28;20048;-70
2022/06/20 11:27:54;;;;;;;25.80;9.52;;;18.30;99.90;;;;;;5031381;28;20051;-70
2022/06/20 11:30:29;;;;;;;16.00;6.18;;;18.40;99.90;;;;;;5005492;28;20053;-73
2022/06/20 11:34:00;;;;;;;16.05;5.82;;;18.40;99.90;;;;;;5070063;28;20132;-69
2022/06/20 11:37:07;;;;;;;20.20;6.63;;;18.50;99.90;;;;;;4917304;29;20130;-68
2022/06/20 11:40:13;;;;;;;19.85;5.50;;;18.50;99.90;;;;;;5032417;28;20048;-70
2022/06/20 11:43:03;;;;;;;14.52;5.55;;;18.60;99.90;;;;;;4931603;28;20054;-70
2022/06/20 11:46:09;;;;;;;16.67;5.47;;;18.50;99.90;;;;;;4912682;28;20146;-74
2022/06/20 11:49:00;;;;;;;10.98;5.32;;;18.30;99.90;;;;;;5029815;28;20131;-72
2022/06/20 11:51:32;;;;;;;12.75;4.93;;;18.00;99.90;;;;;;5040264;28;20427;-72
2022/06/20 11:54:18;;;;;;;21.98;4.90;;;17.80;99.90;;;;;;5035241;28;20063;-69
2022/06/20 11:56:54;;;;;;;12.43;5.80;;;17.60;99.90;;;;;;5039092;28;20407;-70
2022/06/20 11:59:33;;;;;;;12.85;4.57;;;17.70;99.90;;;;;;5038175;28;20419;-71
2022/06/20 12:02:15;;;;;;;21.00;7.47;;;18.10;99.90;;;;;;5032255;28;20041;-70
2022/06/20 12:05:29;;;;;;;11.93;4.57;;;17.90;99.90;;;;;;5034519;28;20089;-73
2022/06/20 12:08:03;;;;;;;13.77;4.95;;;17.90;99.90;;;;;;5029794;28;20049;-70
2022/06/20 12:10:51;;;;;;;9.32;2.88;;;18.30;99.90;;;;;;5035461;28;20051;-66
2022/06/20 12:13:48;;;;;;;8.88;3.38;;;18.50;99.90;;;;;;5057524;28;20048;-69
2022/06/20 12:17:02;;;;;;;20.80;6.50;;;18.60;99.90;;;;;;5037256;28;20082;-68
2022/06/20 12:25:30;;;;;;;10.50;4.10;;;18.30;99.90;;;;;;5040638;28;20075;-71
2022/06/20 12:27:56;;;;;;;11.82;4.50;;;18.30;99.90;;;;;;5037506;28;20040;-69
2022/06/20 12:30:22;;;;;;;21.10;3.53;;;18.30;99.90;;;;;;5014855;28;20048;-67
2022/06/20 12:32:55;;;;;;;7.07;3.95;;;18.40;99.90;;;;;;5035083;28;20063;-69
2022/06/20 12:35:43;;;;;;;10.48;4.20;;;18.50;99.90;;;;;;5032397;28;20428;-68
2022/06/20 12:38:25;;;;;;;15.48;6.05;;;18.80;99.90;;;;;;5032711;28;20037;-71
2022/06/20 12:40:58;;;;;;;13.77;5.20;;;18.90;99.90;;;;;;5069093;28;20037;-71
2022/06/20 12:43:55;;;;;;;9.60;4.20;;;18.90;99.90;;;;;;5039089;28;20488;-73
2022/06/20 12:46:40;;;;;;;10.93;5.22;;;18.90;99.90;;;;;;5045038;28;20495;-72
2022/06/20 12:49:31;;;;;;;12.15;5.85;;;18.70;99.90;;;;;;5037797;28;20064;-73
2022/06/20 12:52:11;;;;;;;14.73;7.03;;;18.30;99.90;;;;;;5035460;28;20038;-70
2022/06/20 12:54:57;;;;;;;13.82;5.97;;;17.90;99.90;;;;;;5036642;28;20037;-73
2022/06/20 12:57:29;;;;;;;17.15;6.55;;;17.90;99.90;;;;;;5033909;28;20044;-71
2022/06/20 13:00:16;;;;;;;13.25;5.60;;;18.00;99.90;;;;;;5044432;28;20479;-67
2022/06/20 13:03:05;;;;;;;16.45;6.75;;;18.00;99.90;;;;;;5057706;28;20045;-72
2022/06/20 13:06:03;;;;;;;11.43;5.30;;;17.90;99.90;;;;;;5030597;28;20068;-70
2022/06/20 13:08:42;;;;;;;17.73;6.30;;;17.80;99.90;;;;;;5036760;28;20045;-72
2022/06/20 13:11:19;;;;;;;17.67;5.63;;;17.90;99.90;;;;;;5037571;28;20480;-70
2022/06/20 13:14:03;;;;;;;14.43;5.43;;;18.00;99.90;;;;;;5029673;28;20037;-72
2022/06/20 13:16:34;;;;;;;12.02;4.78;;;18.10;99.90;;;;;;5031269;28;20399;-70
2022/06/20 13:19:19;;;;;;;17.80;6.22;;;17.90;99.90;;;;;;5036785;28;20548;-66
2022/06/20 13:21:52;;;;;;;16.08;5.68;;;17.70;99.90;;;;;;5031046;28;20041;-72
2022/06/20 13:24:39;;;;;;;14.73;4.43;;;17.50;99.90;;;;;;5035201;28;20036;-68
2022/06/20 13:27:25;;;;;;;9.90;5.32;;;17.50;99.90;;;;;;5020012;28;20040;-69
2022/06/20 13:30:21;;;;;;;12.40;5.55;;;17.60;99.90;;;;;;5044424;28;20506;-75
2022/06/20 13:32:57;;;;;;;13.43;6.07;;;17.60;99.90;;;;;;5046203;28;20266;-72
2022/06/20 13:35:33;;;;;;;11.45;4.78;;;17.70;99.90;;;;;;5037224;28;20049;-72
2022/06/20 13:38:06;;;;;;;10.07;4.53;;;18.00;99.90;;;;;;5063469;28;20049;-71
2022/06/20 13:41:04;;;;;;;11.95;4.03;;;18.20;99.90;;;;;;5037131;28;20045;-71
2022/06/20 13:43:55;;;;;;;8.80;4.03;;;18.40;99.90;;;;;;5005372;28;20078;-69
2022/06/20 13:46:29;;;;;;;12.10;4.30;;;18.50;99.90;;;;;;5075372;28;20051;-67
2022/06/20 13:49:13;;;;;;;9.02;4.72;;;18.60;99.90;;;;;;5036305;28;20042;-73
2022/06/20 13:51:41;;;;;;;10.68;3.90;;;18.50;99.90;;;;;;5032189;28;20117;-70
2022/06/20 13:54:23;;;;;;;6.43;3.53;;;18.60;99.90;;;;;;5066278;28;20045;-70